sensor_id;sensor_type;location;lat;lon;timestamp;temperature;humidity
28546;DHT22;15749;49.606;8.738;2023-08-07T05:03:07;19.30;99.90
28546;DHT22;15749;49.606;8.738;2023-08-07T05:05:37;19.20;99.90
28546;DHT22;15749;49.606;8.738;2023-08-07T05:08:10;19.20;99.90
28546;DHT22;15749;49.606;8.738;2023-08-07T05:10:40;19.20;99.90
28546;DHT22;15749;49.606;8.738;2023-08-07T05:13:15;19.20;99.90
28546;DHT22;15749;49.606;8.738;2023-08-07T05:19:03;19.20;99.90
28546;DHT22;15749;49.606;8.738;2023-08-07T05:21:33;19.20;99.90
28546;DHT22;15749;49.606;8.738;2023-08-07T05:24:03;19.20;99.90
28546;DHT22;15749;49.606;8.738;2023-08-07T05:26:40;19.20;99.90
28546;DHT22;15749;49.606;8.738;2023-08-07T05:30:24;19.20;99.90
28546;DHT22;15749;49.606;8.738;2023-08-07T05:33:32;19.20;99.90
28546;DHT22;15749;49.606;8.738;2023-08-07T05:36:21;19.30;99.90
28546;DHT22;15749;49.606;8.738;2023-08-07T05:39:16;19.20;99.90
28546;DHT22;15749;49.606;8.738;2023-08-07T05:41:57;19.30;99.90
28546;DHT22;15749;49.606;8.738;2023-08-07T05:45:19;19.20;99.90
28546;DHT22;15749;49.606;8.738;2023-08-07T05:54:08;19.30;99.90
28546;DHT22;15749;49.606;8.738;2023-08-07T06:02:29;19.30;99.90
28546;DHT22;15749;49.606;8.738;2023-08-07T06:06:40;19.30;99.90
28546;DHT22;15749;49.606;8.738;2023-08-07T06:14:46;19.30;99.90
28546;DHT22;15749;49.606;8.738;2023-08-07T06:17:31;19.30;99.90
28546;DHT22;15749;49.606;8.738;2023-08-07T06:20:46;19.20;99.90
28546;DHT22;15749;49.606;8.738;2023-08-07T06:23:41;19.30;99.90
28546;DHT22;15749;49.606;8.738;2023-08-07T06:27:00;19.30;99.90
28546;DHT22;15749;49.606;8.738;2023-08-07T06:29:36;19.30;99.90
28546;DHT22;15749;49.606;8.738;2023-08-07T06:42:56;19.30;99.90
28546;DHT22;15749;49.606;8.738;2023-08-07T06:45:25;19.40;99.90
28546;DHT22;15749;49.606;8.738;2023-08-07T06:47:55;19.30;99.90
28546;DHT22;15749;49.606;8.738;2023-08-07T06:50:24;19.30;99.90
28546;DHT22;15749;49.606;8.738;2023-08-07T06:53:39;19.30;99.90
28546;DHT22;15749;49.606;8.738;2023-08-07T06:56:45;19.20;99.90
28546;DHT22;15749;49.606;8.738;2023-08-07T07:08:50;19.30;99.90
28546;DHT22;15749;49.606;8.738;2023-08-07T07:11:21;19.30;99.90
28546;DHT22;15749;49.606;8.738;2023-08-07T07:13:52;19.30;99.90
28546;DHT22;15749;49.606;8.738;2023-08-07T07:16:21;19.30;99.90
28546;DHT22;15749;49.606;8.738;2023-08-07T07:18:51;19.20;99.90
28546;DHT22;15749;49.606;8.738;2023-08-07T07:21:20;19.30;99.90
28546;DHT22;15749;49.606;8.738;2023-08-07T07:23:50;19.20;99.90
28546;DHT22;15749;49.606;8.738;2023-08-07T07:26:19;19.20;99.90
28546;DHT22;15749;49.606;8.738;2023-08-07T07:28:48;19.20;99.90
28546;DHT22;15749;49.606;8.738;2023-08-07T07:31:18;19.30;99.90
28546;DHT22;15749;49.606;8.738;2023-08-07T07:33:48;19.30;99.90
28546;DHT22;15749;49.606;8.738;2023-08-07T07:36:17;19.30;99.90
28546;DHT22;15749;49.606;8.738;2023-08-07T07:38:47;19.30;99.90
28546;DHT22;15749;49.606;8.738;2023-08-07T07:41:18;19.30;99.90
28546;DHT22;15749;49.606;8.738;2023-08-07T07:43:47;19.30;99.90
28546;DHT22;15749;49.606;8.738;2023-08-07T07:46:16;19.30;99.90
28546;DHT22;15749;49.606;8.738;2023-08-07T07:48:44;19.30;99.90
28546;DHT22;15749;49.606;8.738;2023-08-07T07:51:13;19.30;99.90
28546;DHT22;15749;49.606;8.738;2023-08-07T07:53:42;19.30;99.90
28546;DHT22;15749;49.606;8.738;2023-08-07T07:56:11;19.30;99.90
28546;DHT22;15749;49.606;8.738;2023-08-07T07:58:41;19.30;99.90
28546;DHT22;15749;49.606;8.738;2023-08-07T08:01:11;19.30;99.90
28546;DHT22;15749;49.606;8.738;2023-08-07T08:06:45;19.30;99.90
28546;DHT22;15749;49.606;8.738;2023-08-07T08:09:15;19.30;99.90
28546;DHT22;15749;49.606;8.738;2023-08-07T08:11:44;19.30;99.90
28546;DHT22;15749;49.606;8.738;2023-08-07T08:14:14;19.30;99.90
28546;DHT22;15749;49.606;8.738;2023-08-07T08:16:43;19.30;99.90
28546;DHT22;15749;49.606;8.738;2023-08-07T08:19:12;19.30;99.90
28546;DHT22;15749;49.606;8.738;2023-08-07T08:21:46;19.30;99.90
28546;DHT22;15749;49.606;8.738;2023-08-07T08:24:14;19.30;99.90
28546;DHT22;15749;49.606;8.738;2023-08-07T08:26:43;19.30;99.90
28546;DHT22;15749;49.606;8.738;2023-08-07T08:29:15;19.30;99.90
28546;DHT22;15749;49.606;8.738;2023-08-07T08:31:44;19.30;99.90
28546;DHT22;15749;49.606;8.738;2023-08-07T08:34:16;19.30;99.90
28546;DHT22;15749;49.606;8.738;2023-08-07T08:36:44;19.30;99.90
28546;DHT22;15749;49.606;8.738;2023-08-07T08:39:13;19.30;99.90
28546;DHT22;15749;49.606;8.738;2023-08-07T08:41:45;19.30;99.90
28546;DHT22;15749;49.606;8.738;2023-08-07T08:44:17;19.40;99.90
28546;DHT22;15749;49.606;8.738;2023-08-07T08:46:49;19.30;99.90
28546;DHT22;15749;49.606;8.738;2023-08-07T08:49:33;19.40;99.90
28546;DHT22;15749;49.606;8.738;2023-08-07T08:52:04;19.40;99.90
28546;DHT22;15749;49.606;8.738;2023-08-07T08:54:34;19.40;99.90
28546;DHT22;15749;49.606;8.738;2023-08-07T08:57:04;19.40;99.90
28546;DHT22;15749;49.606;8.738;2023-08-07T08:59:36;19.40;99.90
28546;DHT22;15749;49.606;8.738;2023-08-07T09:02:05;19.40;99.90
28546;DHT22;15749;49.606;8.738;2023-08-07T09:04:34;19.40;99.90
28546;DHT22;15749;49.606;8.738;2023-08-07T09:07:04;19.40;99.90
28546;DHT22;15749;49.606;8.738;2023-08-07T09:09:33;19.40;99.90
28546;DHT22;15749;49.606;8.738;2023-08-07T09:12:07;19.40;99.90
28546;DHT22;15749;49.606;8.738;2023-08-07T09:14:40;19.40;99.90
28546;DHT22;15749;49.606;8.738;2023-08-07T09:17:10;19.40;99.90
28546;DHT22;15749;49.606;8.738;2023-08-07T09:19:41;19.40;99.90
28546;DHT22;15749;49.606;8.738;2023-08-07T09:22:10;19.40;99.90
28546;DHT22;15749;49.606;8.738;2023-08-07T09:24:38;19.40;99.90
28546;DHT22;15749;49.606;8.738;2023-08-07T09:27:07;19.40;99.90
28546;DHT22;15749;49.606;8.738;2023-08-07T09:29:39;19.40;99.90
28546;DHT22;15749;49.606;8.738;2023-08-07T09:32:08;19.40;99.90
28546;DHT22;15749;49.606;8.738;2023-08-07T09:34:39;19.40;99.90
28546;DHT22;15749;49.606;8.738;2023-08-07T09:37:07;19.40;99.90
28546;DHT22;15749;49.606;8.738;2023-08-07T09:39:37;19.40;99.90
28546;DHT22;15749;49.606;8.738;2023-08-07T09:42:13;19.40;99.90
28546;DHT22;15749;49.606;8.738;2023-08-07T09:44:44;19.40;99.90
28546;DHT22;15749;49.606;8.738;2023-08-07T09:47:16;19.50;99.90
28546;DHT22;15749;49.606;8.738;2023-08-07T09:49:46;19.50;99.90
28546;DHT22;15749;49.606;8.738;2023-08-07T09:52:15;19.50;99.90
28546;DHT22;15749;49.606;8.738;2023-08-07T09:54:44;19.50;99.90
28546;DHT22;15749;49.606;8.738;2023-08-07T09:57:13;19.50;99.90
28546;DHT22;15749;49.606;8.738;2023-08-07T09:59:49;19.50;99.90
28546;DHT22;15749;49.606;8.738;2023-08-07T10:02:19;19.50;99.90
28546;DHT22;15749;49.606;8.738;2023-08-07T10:04:50;19.50;99.90
28546;DHT22;15749;49.606;8.738;2023-08-07T10:07:19;19.60;99.90
28546;DHT22;15749;49.606;8.738;2023-08-07T10:09:48;19.60;99.90
28546;DHT22;15749;49.606;8.738;2023-08-07T10:12:17;19.60;99.90
28546;DHT22;15749;49.606;8.738;2023-08-07T10:14:48;19.60;99.90
28546;DHT22;15749;49.606;8.738;2023-08-07T10:17:18;19.60;99.90
28546;DHT22;15749;49.606;8.738;2023-08-07T10:19:48;19.60;99.90
28546;DHT22;15749;49.606;8.738;2023-08-07T10:22:17;19.60;99.90
28546;DHT22;15749;49.606;8.738;2023-08-07T10:24:48;19.60;99.90
28546;DHT22;15749;49.606;8.738;2023-08-07T10:27:19;19.60;99.90
28546;DHT22;15749;49.606;8.738;2023-08-07T10:29:50;19.60;99.90
28546;DHT22;15749;49.606;8.738;2023-08-07T10:32:21;19.60;99.90
28546;DHT22;15749;49.606;8.738;2023-08-07T10:34:51;19.60;99.90
28546;DHT22;15749;49.606;8.738;2023-08-07T10:37:39;19.70;99.90
28546;DHT22;15749;49.606;8.738;2023-08-07T10:40:10;19.60;99.90
28546;DHT22;15749;49.606;8.738;2023-08-07T10:42:56;19.70;99.90
28546;DHT22;15749;49.606;8.738;2023-08-07T10:45:27;19.70;99.90
28546;DHT22;15749;49.606;8.738;2023-08-07T10:48:05;19.70;99.90
28546;DHT22;15749;49.606;8.738;2023-08-07T10:50:35;19.70;99.90
28546;DHT22;15749;49.606;8.738;2023-08-07T10:53:19;19.70;99.90
28546;DHT22;15749;49.606;8.738;2023-08-07T10:55:48;19.70;99.90
28546;DHT22;15749;49.606;8.738;2023-08-07T10:58:26;19.70;99.90
28546;DHT22;15749;49.606;8.738;2023-08-07T11:01:17;19.70;99.90
28546;DHT22;15749;49.606;8.738;2023-08-07T11:03:52;19.70;99.90
28546;DHT22;15749;49.606;8.738;2023-08-07T11:06:23;19.70;99.90
28546;DHT22;15749;49.606;8.738;2023-08-07T11:08:54;19.70;99.90
28546;DHT22;15749;49.606;8.738;2023-08-07T11:11:24;19.70;99.90
28546;DHT22;15749;49.606;8.738;2023-08-07T11:13:53;19.70;99.90
28546;DHT22;15749;49.606;8.738;2023-08-07T11:16:25;19.70;99.90
28546;DHT22;15749;49.606;8.738;2023-08-07T11:18:55;19.80;99.90
28546;DHT22;15749;49.606;8.738;2023-08-07T11:21:25;19.80;99.90
28546;DHT22;15749;49.606;8.738;2023-08-07T11:23:55;19.80;99.90
28546;DHT22;15749;49.606;8.738;2023-08-07T11:26:24;19.80;99.90
28546;DHT22;15749;49.606;8.738;2023-08-07T11:28:54;19.80;99.90
28546;DHT22;15749;49.606;8.738;2023-08-07T11:31:24;19.80;99.90
28546;DHT22;15749;49.606;8.738;2023-08-07T11:33:55;19.80;99.90
28546;DHT22;15749;49.606;8.738;2023-08-07T11:36:25;19.80;99.90
28546;DHT22;15749;49.606;8.738;2023-08-07T11:38:54;19.80;99.90
28546;DHT22;15749;49.606;8.738;2023-08-07T11:41:23;19.80;99.90
28546;DHT22;15749;49.606;8.738;2023-08-07T11:43:52;19.80;99.90
28546;DHT22;15749;49.606;8.738;2023-08-07T11:46:21;19.80;99.90
28546;DHT22;15749;49.606;8.738;2023-08-07T11:48:52;19.80;99.90
28546;DHT22;15749;49.606;8.738;2023-08-07T11:51:22;19.80;99.90
28546;DHT22;15749;49.606;8.738;2023-08-07T11:53:52;19.80;99.90
28546;DHT22;15749;49.606;8.738;2023-08-07T11:56:24;19.80;99.90
28546;DHT22;15749;49.606;8.738;2023-08-07T11:58:53;19.80;99.90
28546;DHT22;15749;49.606;8.738;2023-08-07T12:01:23;19.80;99.90
28546;DHT22;15749;49.606;8.738;2023-08-07T12:03:56;19.80;99.90
28546;DHT22;15749;49.606;8.738;2023-08-07T12:06:25;19.80;99.90
28546;DHT22;15749;49.606;8.738;2023-08-07T12:08:55;19.90;99.90
28546;DHT22;15749;49.606;8.738;2023-08-07T12:11:25;19.80;99.90
28546;DHT22;15749;49.606;8.738;2023-08-07T12:13:54;19.90;99.90
28546;DHT22;15749;49.606;8.738;2023-08-07T12:16:26;19.90;99.90
28546;DHT22;15749;49.606;8.738;2023-08-07T12:18:56;19.90;99.90
28546;DHT22;15749;49.606;8.738;2023-08-07T12:21:27;19.90;99.90
28546;DHT22;15749;49.606;8.738;2023-08-07T12:23:57;19.90;99.90
28546;DHT22;15749;49.606;8.738;2023-08-07T12:26:28;19.90;99.90
28546;DHT22;15749;49.606;8.738;2023-08-07T12:28:59;19.90;99.90
28546;DHT22;15749;49.606;8.738;2023-08-07T12:31:27;19.90;99.90
28546;DHT22;15749;49.606;8.738;2023-08-07T12:33:58;19.90;99.90
28546;DHT22;15749;49.606;8.738;2023-08-07T12:36:48;19.90;99.90
28546;DHT22;15749;49.606;8.738;2023-08-07T12:39:17;20.00;99.90
28546;DHT22;15749;49.606;8.738;2023-08-07T12:41:46;20.00;99.90
28546;DHT22;15749;49.606;8.738;2023-08-07T12:44:37;20.00;99.90
28546;DHT22;15749;49.606;8.738;2023-08-07T12:47:06;20.00;99.90
28546;DHT22;15749;49.606;8.738;2023-08-07T12:49:36;20.00;99.90
28546;DHT22;15749;49.606;8.738;2023-08-07T12:52:08;20.00;99.90
28546;DHT22;15749;49.606;8.738;2023-08-07T12:54:39;20.00;99.90
28546;DHT22;15749;49.606;8.738;2023-08-07T12:57:08;20.00;99.90
28546;DHT22;15749;49.606;8.738;2023-08-07T12:59:37;20.00;99.90
28546;DHT22;15749;49.606;8.738;2023-08-07T13:02:07;20.00;99.90
28546;DHT22;15749;49.606;8.738;2023-08-07T13:04:40;20.00;99.90
28546;DHT22;15749;49.606;8.738;2023-08-07T13:07:10;20.10;99.90
28546;DHT22;15749;49.606;8.738;2023-08-07T13:09:39;20.10;99.90
28546;DHT22;15749;49.606;8.738;2023-08-07T13:12:08;20.10;99.90
28546;DHT22;15749;49.606;8.738;2023-08-07T13:14:37;20.10;99.90
28546;DHT22;15749;49.606;8.738;2023-08-07T13:17:05;20.10;99.90
28546;DHT22;15749;49.606;8.738;2023-08-07T13:19:34;20.10;99.90
28546;DHT22;15749;49.606;8.738;2023-08-07T13:22:05;20.10;99.90
28546;DHT22;15749;49.606;8.738;2023-08-07T13:24:34;20.10;99.90
28546;DHT22;15749;49.606;8.738;2023-08-07T13:27:03;20.20;99.90
28546;DHT22;15749;49.606;8.738;2023-08-07T13:29:32;20.10;99.90
28546;DHT22;15749;49.606;8.738;2023-08-07T13:32:03;20.20;99.90
28546;DHT22;15749;49.606;8.738;2023-08-07T13:35:10;20.20;99.90
28546;DHT22;15749;49.606;8.738;2023-08-07T13:37:44;20.20;99.90
28546;DHT22;15749;49.606;8.738;2023-08-07T13:40:22;20.20;99.90
28546;DHT22;15749;49.606;8.738;2023-08-07T13:43:14;20.20;99.90
28546;DHT22;15749;49.606;8.738;2023-08-07T13:46:20;20.30;99.90
28546;DHT22;15749;49.606;8.738;2023-08-07T13:48:56;20.30;99.90
28546;DHT22;15749;49.606;8.738;2023-08-07T13:51:34;20.30;99.90
28546;DHT22;15749;49.606;8.738;2023-08-07T13:54:06;20.30;99.90
28546;DHT22;15749;49.606;8.738;2023-08-07T13:56:45;20.30;99.90
28546;DHT22;15749;49.606;8.738;2023-08-07T13:59:21;20.30;99.90
28546;DHT22;15749;49.606;8.738;2023-08-07T14:01:56;20.30;99.90
28546;DHT22;15749;49.606;8.738;2023-08-07T14:04:39;20.30;99.90
28546;DHT22;15749;49.606;8.738;2023-08-07T14:07:15;20.40;99.90
28546;DHT22;15749;49.606;8.738;2023-08-07T14:09:53;20.30;99.90
28546;DHT22;15749;49.606;8.738;2023-08-07T14:12:33;20.40;99.90
28546;DHT22;15749;49.606;8.738;2023-08-07T14:15:20;20.40;99.90
28546;DHT22;15749;49.606;8.738;2023-08-07T14:17:53;20.40;99.90
28546;DHT22;15749;49.606;8.738;2023-08-07T14:20:36;20.40;99.90
28546;DHT22;15749;49.606;8.738;2023-08-07T14:23:32;20.40;99.90
28546;DHT22;15749;49.606;8.738;2023-08-07T14:26:13;20.50;99.90
28546;DHT22;15749;49.606;8.738;2023-08-07T14:29:05;20.50;99.90
28546;DHT22;15749;49.606;8.738;2023-08-07T14:32:20;20.50;99.90
28546;DHT22;15749;49.606;8.738;2023-08-07T14:35:04;20.50;99.90
28546;DHT22;15749;49.606;8.738;2023-08-07T14:37:40;20.50;99.90
28546;DHT22;15749;49.606;8.738;2023-08-07T14:40:29;20.50;99.90
28546;DHT22;15749;49.606;8.738;2023-08-07T14:43:39;20.50;99.90
28546;DHT22;15749;49.606;8.738;2023-08-07T14:46:12;20.60;99.90
28546;DHT22;15749;49.606;8.738;2023-08-07T14:49:06;20.60;99.90
28546;DHT22;15749;49.606;8.738;2023-08-07T14:51:38;20.60;99.90
28546;DHT22;15749;49.606;8.738;2023-08-07T14:54:50;20.60;99.90
28546;DHT22;15749;49.606;8.738;2023-08-07T14:57:31;20.60;99.90
28546;DHT22;15749;49.606;8.738;2023-08-07T15:00:34;20.70;99.90
28546;DHT22;15749;49.606;8.738;2023-08-07T15:03:04;20.70;99.90
28546;DHT22;15749;49.606;8.738;2023-08-07T15:05:33;20.70;99.90
28546;DHT22;15749;49.606;8.738;2023-08-07T15:08:03;20.70;99.90
28546;DHT22;15749;49.606;8.738;2023-08-07T15:10:32;20.70;99.90
28546;DHT22;15749;49.606;8.738;2023-08-07T15:13:03;20.70;99.90
28546;DHT22;15749;49.606;8.738;2023-08-07T15:15:52;20.80;99.90
28546;DHT22;15749;49.606;8.738;2023-08-07T15:19:21;20.80;99.90
28546;DHT22;15749;49.606;8.738;2023-08-07T15:21:50;20.80;99.90
28546;DHT22;15749;49.606;8.738;2023-08-07T15:24:19;20.80;99.90
28546;DHT22;15749;49.606;8.738;2023-08-07T15:27:20;20.60;99.90
28546;DHT22;15749;49.606;8.738;2023-08-07T16:17:27;21.00;99.90
28546;DHT22;15749;49.606;8.738;2023-08-07T16:19:57;21.00;99.90
28546;DHT22;15749;49.606;8.738;2023-08-07T16:22:27;21.10;99.90
28546;DHT22;15749;49.606;8.738;2023-08-07T16:24:57;21.10;99.90
28546;DHT22;15749;49.606;8.738;2023-08-07T16:27:26;21.10;99.90
28546;DHT22;15749;49.606;8.738;2023-08-07T16:29:57;21.10;99.90
28546;DHT22;15749;49.606;8.738;2023-08-07T16:32:34;21.10;99.90
28546;DHT22;15749;49.606;8.738;2023-08-07T16:35:09;21.10;99.90
28546;DHT22;15749;49.606;8.738;2023-08-07T16:38:07;21.10;99.90
28546;DHT22;15749;49.606;8.738;2023-08-07T17:19:26;21.30;99.90
28546;DHT22;15749;49.606;8.738;2023-08-07T17:21:56;21.20;99.90
28546;DHT22;15749;49.606;8.738;2023-08-07T17:24:27;21.20;99.90
28546;DHT22;15749;49.606;8.738;2023-08-07T17:26:56;21.20;99.90
28546;DHT22;15749;49.606;8.738;2023-08-07T17:29:26;21.20;99.90
28546;DHT22;15749;49.606;8.738;2023-08-07T17:31:55;21.20;99.90
28546;DHT22;15749;49.606;8.738;2023-08-07T17:34:27;21.30;99.90
28546;DHT22;15749;49.606;8.738;2023-08-07T17:37:07;21.20;99.90
28546;DHT22;15749;49.606;8.738;2023-08-07T17:39:37;21.30;99.90
28546;DHT22;15749;49.606;8.738;2023-08-07T17:42:06;21.30;99.90
28546;DHT22;15749;49.606;8.738;2023-08-07T17:44:38;21.30;99.90
28546;DHT22;15749;49.606;8.738;2023-08-07T17:47:07;21.30;99.90
28546;DHT22;15749;49.606;8.738;2023-08-07T17:49:38;21.30;99.90
28546;DHT22;15749;49.606;8.738;2023-08-07T17:52:08;21.30;99.90
28546;DHT22;15749;49.606;8.738;2023-08-07T17:54:37;21.30;99.90
28546;DHT22;15749;49.606;8.738;2023-08-07T17:57:06;21.30;99.90
28546;DHT22;15749;49.606;8.738;2023-08-07T17:59:36;21.30;99.90
28546;DHT22;15749;49.606;8.738;2023-08-07T18:02:05;21.30;99.90
28546;DHT22;15749;49.606;8.738;2023-08-07T18:04:42;21.30;99.90
28546;DHT22;15749;49.606;8.738;2023-08-07T18:07:11;21.30;99.90
28546;DHT22;15749;49.606;8.738;2023-08-07T18:09:46;21.30;99.90
28546;DHT22;15749;49.606;8.738;2023-08-07T18:12:15;21.30;99.90
28546;DHT22;15749;49.606;8.738;2023-08-07T18:14:45;21.40;99.90
28546;DHT22;15749;49.606;8.738;2023-08-07T18:17:14;21.30;99.90
28546;DHT22;15749;49.606;8.738;2023-08-07T18:19:44;21.30;99.90
28546;DHT22;15749;49.606;8.738;2023-08-07T18:22:13;21.40;99.90
28546;DHT22;15749;49.606;8.738;2023-08-07T18:24:42;21.30;99.90
28546;DHT22;15749;49.606;8.738;2023-08-07T18:27:12;21.30;99.90
28546;DHT22;15749;49.606;8.738;2023-08-07T18:29:57;21.30;99.90
28546;DHT22;15749;49.606;8.738;2023-08-07T18:32:26;21.40;99.90
28546;DHT22;15749;49.606;8.738;2023-08-07T18:34:58;21.40;99.90
28546;DHT22;15749;49.606;8.738;2023-08-07T18:37:28;21.30;99.90
28546;DHT22;15749;49.606;8.738;2023-08-07T18:39:57;21.30;99.90
28546;DHT22;15749;49.606;8.738;2023-08-07T18:42:26;21.40;99.90
28546;DHT22;15749;49.606;8.738;2023-08-07T18:44:55;21.30;99.90
28546;DHT22;15749;49.606;8.738;2023-08-07T18:47:24;21.30;99.90
28546;DHT22;15749;49.606;8.738;2023-08-07T18:49:53;21.40;99.90
28546;DHT22;15749;49.606;8.738;2023-08-07T18:52:24;21.40;99.90
28546;DHT22;15749;49.606;8.738;2023-08-07T18:54:55;21.40;99.90
28546;DHT22;15749;49.606;8.738;2023-08-07T18:57:24;21.40;99.90
28546;DHT22;15749;49.606;8.738;2023-08-07T18:59:56;21.30;99.90
28546;DHT22;15749;49.606;8.738;2023-08-07T19:02:25;21.40;99.90
28546;DHT22;15749;49.606;8.738;2023-08-07T19:04:55;21.30;99.90
28546;DHT22;15749;49.606;8.738;2023-08-07T19:07:25;21.40;99.90
28546;DHT22;15749;49.606;8.738;2023-08-07T19:09:54;21.40;99.90
28546;DHT22;15749;49.606;8.738;2023-08-07T19:12:24;21.40;99.90
28546;DHT22;15749;49.606;8.738;2023-08-07T19:14:53;21.40;99.90
28546;DHT22;15749;49.606;8.738;2023-08-07T19:17:22;21.40;99.90
28546;DHT22;15749;49.606;8.738;2023-08-07T19:19:52;21.40;99.90
28546;DHT22;15749;49.606;8.738;2023-08-07T19:22:21;21.40;99.90
28546;DHT22;15749;49.606;8.738;2023-08-07T19:24:52;21.30;99.90
28546;DHT22;15749;49.606;8.738;2023-08-07T19:27:21;21.40;99.90
28546;DHT22;15749;49.606;8.738;2023-08-07T19:29:51;21.30;99.90
28546;DHT22;15749;49.606;8.738;2023-08-07T19:32:24;21.40;99.90
28546;DHT22;15749;49.606;8.738;2023-08-07T19:34:57;21.30;99.90
28546;DHT22;15749;49.606;8.738;2023-08-07T19:37:26;21.30;99.90
28546;DHT22;15749;49.606;8.738;2023-08-07T19:39:57;21.30;99.90
28546;DHT22;15749;49.606;8.738;2023-08-07T19:42:31;21.30;99.90
28546;DHT22;15749;49.606;8.738;2023-08-07T19:45:02;21.30;99.90
28546;DHT22;15749;49.606;8.738;2023-08-07T19:47:31;21.30;99.90
28546;DHT22;15749;49.606;8.738;2023-08-07T19:50:04;21.30;99.90
28546;DHT22;15749;49.606;8.738;2023-08-07T19:52:33;21.30;99.90
28546;DHT22;15749;49.606;8.738;2023-08-07T19:55:05;21.30;99.90
28546;DHT22;15749;49.606;8.738;2023-08-07T19:57:35;21.30;99.90
28546;DHT22;15749;49.606;8.738;2023-08-07T20:00:05;21.30;99.90
28546;DHT22;15749;49.606;8.738;2023-08-07T20:02:35;21.30;99.90
28546;DHT22;15749;49.606;8.738;2023-08-07T20:05:08;21.30;99.90
28546;DHT22;15749;49.606;8.738;2023-08-07T20:07:37;21.30;99.90
28546;DHT22;15749;49.606;8.738;2023-08-07T20:10:08;21.30;99.90
28546;DHT22;15749;49.606;8.738;2023-08-07T20:12:39;21.30;99.90
28546;DHT22;15749;49.606;8.738;2023-08-07T20:15:10;21.30;99.90
28546;DHT22;15749;49.606;8.738;2023-08-07T20:17:41;21.30;99.90
28546;DHT22;15749;49.606;8.738;2023-08-07T20:20:10;21.30;99.90
28546;DHT22;15749;49.606;8.738;2023-08-07T20:22:41;21.30;99.90
28546;DHT22;15749;49.606;8.738;2023-08-07T20:25:12;21.30;99.90
28546;DHT22;15749;49.606;8.738;2023-08-07T20:27:41;21.30;99.90
28546;DHT22;15749;49.606;8.738;2023-08-07T20:30:10;21.30;99.90
28546;DHT22;15749;49.606;8.738;2023-08-07T20:32:40;21.30;99.90
28546;DHT22;15749;49.606;8.738;2023-08-07T20:35:09;21.30;99.90
28546;DHT22;15749;49.606;8.738;2023-08-07T20:37:38;21.30;99.90
28546;DHT22;15749;49.606;8.738;2023-08-07T20:40:09;21.30;99.90
28546;DHT22;15749;49.606;8.738;2023-08-07T20:42:41;21.30;99.90
28546;DHT22;15749;49.606;8.738;2023-08-07T20:45:10;21.20;99.90
28546;DHT22;15749;49.606;8.738;2023-08-07T20:47:48;21.30;99.90
28546;DHT22;15749;49.606;8.738;2023-08-07T20:50:26;21.20;99.90
28546;DHT22;15749;49.606;8.738;2023-08-07T20:52:55;21.20;99.90
28546;DHT22;15749;49.606;8.738;2023-08-07T20:55:24;21.20;99.90
28546;DHT22;15749;49.606;8.738;2023-08-07T20:57:55;21.20;99.90
28546;DHT22;15749;49.606;8.738;2023-08-07T21:00:24;21.20;99.90
28546;DHT22;15749;49.606;8.738;2023-08-07T21:02:54;21.20;99.90
28546;DHT22;15749;49.606;8.738;2023-08-07T21:05:23;21.20;99.90
28546;DHT22;15749;49.606;8.738;2023-08-07T21:07:53;21.20;99.90
28546;DHT22;15749;49.606;8.738;2023-08-07T21:10:24;21.20;99.90
28546;DHT22;15749;49.606;8.738;2023-08-07T21:13:05;21.20;99.90
28546;DHT22;15749;49.606;8.738;2023-08-07T21:15:36;21.20;99.90
28546;DHT22;15749;49.606;8.738;2023-08-07T21:18:10;21.20;99.90
28546;DHT22;15749;49.606;8.738;2023-08-07T21:20:42;21.20;99.90
28546;DHT22;15749;49.606;8.738;2023-08-07T21:23:14;21.10;99.90
28546;DHT22;15749;49.606;8.738;2023-08-07T21:25:46;21.20;99.90
28546;DHT22;15749;49.606;8.738;2023-08-07T21:28:20;21.20;99.90
28546;DHT22;15749;49.606;8.738;2023-08-07T21:30:53;21.10;99.90
28546;DHT22;15749;49.606;8.738;2023-08-07T21:33:24;21.10;99.90
28546;DHT22;15749;49.606;8.738;2023-08-07T21:35:59;21.10;99.90
28546;DHT22;15749;49.606;8.738;2023-08-07T21:38:44;21.10;99.90
28546;DHT22;15749;49.606;8.738;2023-08-07T21:41:26;21.10;99.90
28546;DHT22;15749;49.606;8.738;2023-08-07T21:44:00;21.10;99.90
28546;DHT22;15749;49.606;8.738;2023-08-07T21:46:30;21.10;99.90
28546;DHT22;15749;49.606;8.738;2023-08-07T21:49:00;21.10;99.90
28546;DHT22;15749;49.606;8.738;2023-08-07T21:51:29;21.10;99.90
28546;DHT22;15749;49.606;8.738;2023-08-07T21:54:03;21.10;99.90
28546;DHT22;15749;49.606;8.738;2023-08-07T21:56:32;21.00;99.90
28546;DHT22;15749;49.606;8.738;2023-08-07T21:59:04;21.00;99.90
28546;DHT22;15749;49.606;8.738;2023-08-07T22:01:34;21.00;99.90
28546;DHT22;15749;49.606;8.738;2023-08-07T22:04:04;21.00;99.90
28546;DHT22;15749;49.606;8.738;2023-08-07T22:06:33;21.00;99.90
28546;DHT22;15749;49.606;8.738;2023-08-07T22:09:05;21.00;99.90
28546;DHT22;15749;49.606;8.738;2023-08-07T22:11:35;21.00;99.90
28546;DHT22;15749;49.606;8.738;2023-08-07T22:14:06;21.00;99.90
28546;DHT22;15749;49.606;8.738;2023-08-07T22:16:35;20.90;99.90
28546;DHT22;15749;49.606;8.738;2023-08-07T22:19:04;20.90;99.90
28546;DHT22;15749;49.606;8.738;2023-08-07T22:21:34;20.90;99.90
28546;DHT22;15749;49.606;8.738;2023-08-07T22:24:03;20.90;99.90
28546;DHT22;15749;49.606;8.738;2023-08-07T22:26:33;20.90;99.90
28546;DHT22;15749;49.606;8.738;2023-08-07T22:29:02;20.90;99.90
28546;DHT22;15749;49.606;8.738;2023-08-07T22:31:32;20.80;99.90
28546;DHT22;15749;49.606;8.738;2023-08-07T22:34:05;20.80;99.90
28546;DHT22;15749;49.606;8.738;2023-08-07T22:36:34;20.80;99.90
28546;DHT22;15749;49.606;8.738;2023-08-07T22:39:03;20.80;99.90
28546;DHT22;15749;49.606;8.738;2023-08-07T22:41:32;20.80;99.90
28546;DHT22;15749;49.606;8.738;2023-08-07T22:44:02;20.80;99.90
28546;DHT22;15749;49.606;8.738;2023-08-07T22:46:33;20.80;99.90
28546;DHT22;15749;49.606;8.738;2023-08-07T22:49:02;20.80;99.90
28546;DHT22;15749;49.606;8.738;2023-08-07T22:51:31;20.80;99.90
28546;DHT22;15749;49.606;8.738;2023-08-07T22:54:02;20.70;99.90
28546;DHT22;15749;49.606;8.738;2023-08-07T22:56:31;20.70;99.90
28546;DHT22;15749;49.606;8.738;2023-08-07T22:59:03;20.70;99.90
28546;DHT22;15749;49.606;8.738;2023-08-07T23:01:37;20.70;99.90
28546;DHT22;15749;49.606;8.738;2023-08-07T23:04:08;20.70;99.90
28546;DHT22;15749;49.606;8.738;2023-08-07T23:06:41;20.70;99.90
28546;DHT22;15749;49.606;8.738;2023-08-07T23:09:10;20.70;99.90
28546;DHT22;15749;49.606;8.738;2023-08-07T23:11:39;20.70;99.90
28546;DHT22;15749;49.606;8.738;2023-08-07T23:14:08;20.60;99.90
28546;DHT22;15749;49.606;8.738;2023-08-07T23:16:38;20.60;99.90
28546;DHT22;15749;49.606;8.738;2023-08-07T23:19:07;20.60;99.90
28546;DHT22;15749;49.606;8.738;2023-08-07T23:21:37;20.60;99.90
28546;DHT22;15749;49.606;8.738;2023-08-07T23:24:06;20.60;99.90